sensor_id;sensor_type;location;lat;lon;timestamp;P1;durP1;ratioP1;P2;durP2;ratioP2
22308;SDS011;11322;50.858;-1.778;2023-01-16T00:00:34;0.6;;;0.45;;
22308;SDS011;11322;50.858;-1.778;2023-01-16T00:05:34;0.1;;;0.1;;
22308;SDS011;11322;50.858;-1.778;2023-01-16T00:10:34;0.4;;;0.4;;
22308;SDS011;11322;50.858;-1.778;2023-01-16T00:15:34;0.2;;;0.2;;
22308;SDS011;11322;50.858;-1.778;2023-01-16T00:20:34;0.3;;;0.2;;
22308;SDS011;11322;50.858;-1.778;2023-01-16T00:25:37;1.8;;;0.2;;
22308;SDS011;11322;50.858;-1.778;2023-01-16T00:30:34;0.1;;;0.1;;
22308;SDS011;11322;50.858;-1.778;2023-01-16T00:35:34;3.55;;;1.0;;
22308;SDS011;11322;50.858;-1.778;2023-01-16T00:40:34;0.2;;;0.2;;
22308;SDS011;11322;50.858;-1.778;2023-01-16T00:45:34;0.2;;;0.1;;
22308;SDS011;11322;50.858;-1.778;2023-01-16T00:50:35;0.2;;;0.2;;
22308;SDS011;11322;50.858;-1.778;2023-01-16T00:55:34;0.65;;;0.1;;
22308;SDS011;11322;50.858;-1.778;2023-01-16T01:00:34;0.1;;;0.1;;
22308;SDS011;11322;50.858;-1.778;2023-01-16T01:05:34;0.25;;;0.25;;
22308;SDS011;11322;50.858;-1.778;2023-01-16T01:10:35;1.15;;;0.2;;
22308;SDS011;11322;50.858;-1.778;2023-01-16T01:15:34;0.25;;;0.15;;
22308;SDS011;11322;50.858;-1.778;2023-01-16T01:20:34;0.9;;;0.2;;
22308;SDS011;11322;50.858;-1.778;2023-01-16T01:25:35;1.95;;;0.4;;
22308;SDS011;11322;50.858;-1.778;2023-01-16T01:30:34;1.0;;;0.4;;
22308;SDS011;11322;50.858;-1.778;2023-01-16T01:35:34;0.85;;;0.3;;
22308;SDS011;11322;50.858;-1.778;2023-01-16T01:40:34;0.3;;;0.15;;
22308;SDS011;11322;50.858;-1.778;2023-01-16T01:45:34;2.2;;;0.5;;
22308;SDS011;11322;50.858;-1.778;2023-01-16T01:50:35;0.8;;;0.2;;
22308;SDS011;11322;50.858;-1.778;2023-01-16T01:55:34;0.8;;;0.2;;
22308;SDS011;11322;50.858;-1.778;2023-01-16T02:00:34;0.1;;;0.1;;
22308;SDS011;11322;50.858;-1.778;2023-01-16T02:05:34;1.6;;;0.3;;
22308;SDS011;11322;50.858;-1.778;2023-01-16T02:10:36;0.1;;;0.1;;
22308;SDS011;11322;50.858;-1.778;2023-01-16T02:15:34;0.3;;;0.1;;
22308;SDS011;11322;50.858;-1.778;2023-01-16T02:20:36;0.3;;;0.1;;
22308;SDS011;11322;50.858;-1.778;2023-01-16T02:25:47;0.25;;;0.2;;
22308;SDS011;11322;50.858;-1.778;2023-01-16T02:31:02;0.1;;;0.1;;
22308;SDS011;11322;50.858;-1.778;2023-01-16T02:35:38;0.1;;;0.1;;
22308;SDS011;11322;50.858;-1.778;2023-01-16T02:40:38;0.1;;;0.1;;
22308;SDS011;11322;50.858;-1.778;2023-01-16T02:45:40;0.65;;;0.2;;
22308;SDS011;11322;50.858;-1.778;2023-01-16T02:50:35;0.2;;;0.2;;
22308;SDS011;11322;50.858;-1.778;2023-01-16T02:55:34;0.3;;;0.3;;
22308;SDS011;11322;50.858;-1.778;2023-01-16T03:00:34;0.4;;;0.4;;
22308;SDS011;11322;50.858;-1.778;2023-01-16T03:05:36;0.45;;;0.45;;
22308;SDS011;11322;50.858;-1.778;2023-01-16T03:10:43;0.6;;;0.5;;
22308;SDS011;11322;50.858;-1.778;2023-01-16T03:15:43;1.1;;;0.8;;
22308;SDS011;11322;50.858;-1.778;2023-01-16T03:20:36;0.5;;;0.5;;
22308;SDS011;11322;50.858;-1.778;2023-01-16T03:25:34;0.95;;;0.7;;
22308;SDS011;11322;50.858;-1.778;2023-01-16T03:30:36;2.1;;;0.7;;
22308;SDS011;11322;50.858;-1.778;2023-01-16T03:35:34;1.0;;;0.7;;
22308;SDS011;11322;50.858;-1.778;2023-01-16T03:40:35;0.6;;;0.4;;
22308;SDS011;11322;50.858;-1.778;2023-01-16T03:45:36;1.7;;;0.65;;
22308;SDS011;11322;50.858;-1.778;2023-01-16T03:50:34;1.6;;;0.4;;
22308;SDS011;11322;50.858;-1.778;2023-01-16T03:55:35;1.25;;;0.35;;
22308;SDS011;11322;50.858;-1.778;2023-01-16T04:00:37;1.8;;;0.5;;
22308;SDS011;11322;50.858;-1.778;2023-01-16T04:05:35;5.15;;;0.9;;
22308;SDS011;11322;50.858;-1.778;2023-01-16T04:10:34;3.25;;;0.6;;
22308;SDS011;11322;50.858;-1.778;2023-01-16T04:15:34;5.25;;;0.9;;
22308;SDS011;11322;50.858;-1.778;2023-01-16T04:20:34;4.75;;;0.95;;
22308;SDS011;11322;50.858;-1.778;2023-01-16T04:25:34;4.9;;;0.7;;
22308;SDS011;11322;50.858;-1.778;2023-01-16T04:30:34;2.25;;;0.4;;
22308;SDS011;11322;50.858;-1.778;2023-01-16T04:35:34;5.4;;;0.9;;
22308;SDS011;11322;50.858;-1.778;2023-01-16T04:40:34;2.0;;;0.95;;
22308;SDS011;11322;50.858;-1.778;2023-01-16T04:45:34;1.4;;;0.9;;
22308;SDS011;11322;50.858;-1.778;2023-01-16T04:50:34;2.75;;;1.2;;
22308;SDS011;11322;50.858;-1.778;2023-01-16T04:55:34;2.2;;;1.25;;
22308;SDS011;11322;50.858;-1.778;2023-01-16T05:00:34;1.8;;;0.95;;
22308;SDS011;11322;50.858;-1.778;2023-01-16T05:05:34;6.0;;;1.5;;
22308;SDS011;11322;50.858;-1.778;2023-01-16T05:10:34;1.65;;;0.9;;
22308;SDS011;11322;50.858;-1.778;2023-01-16T05:15:34;12.0;;;2.55;;
22308;SDS011;11322;50.858;-1.778;2023-01-16T05:20:34;7.4;;;2.0;;
22308;SDS011;11322;50.858;-1.778;2023-01-16T05:25:34;5.55;;;1.75;;
22308;SDS011;11322;50.858;-1.778;2023-01-16T05:30:34;9.9;;;1.6;;
22308;SDS011;11322;50.858;-1.778;2023-01-16T05:35:34;9.05;;;1.6;;
22308;SDS011;11322;50.858;-1.778;2023-01-16T05:40:34;8.0;;;1.0;;
22308;SDS011;11322;50.858;-1.778;2023-01-16T05:45:34;1.9;;;0.8;;
22308;SDS011;11322;50.858;-1.778;2023-01-16T05:50:34;3.75;;;0.65;;
22308;SDS011;11322;50.858;-1.778;2023-01-16T05:55:36;8.9;;;1.0;;
22308;SDS011;11322;50.858;-1.778;2023-01-16T06:00:34;4.1;;;1.6;;
22308;SDS011;11322;50.858;-1.778;2023-01-16T06:05:34;9.3;;;1.45;;
22308;SDS011;11322;50.858;-1.778;2023-01-16T06:10:34;7.55;;;2.0;;
22308;SDS011;11322;50.858;-1.778;2023-01-16T06:15:34;18.9;;;2.6;;
22308;SDS011;11322;50.858;-1.778;2023-01-16T06:20:34;4.2;;;1.6;;
22308;SDS011;11322;50.858;-1.778;2023-01-16T06:25:34;0.9;;;0.7;;
22308;SDS011;11322;50.858;-1.778;2023-01-16T06:30:34;5.15;;;1.25;;
22308;SDS011;11322;50.858;-1.778;2023-01-16T06:35:34;1.7;;;1.3;;
22308;SDS011;11322;50.858;-1.778;2023-01-16T06:40:34;0.9;;;0.6;;
22308;SDS011;11322;50.858;-1.778;2023-01-16T06:45:34;0.75;;;0.65;;
22308;SDS011;11322;50.858;-1.778;2023-01-16T06:50:34;0.5;;;0.5;;
22308;SDS011;11322;50.858;-1.778;2023-01-16T06:55:34;2.45;;;1.55;;
22308;SDS011;11322;50.858;-1.778;2023-01-16T07:00:34;3.8;;;1.25;;
22308;SDS011;11322;50.858;-1.778;2023-01-16T07:05:34;6.45;;;1.8;;
22308;SDS011;11322;50.858;-1.778;2023-01-16T07:10:34;6.25;;;2.2;;
22308;SDS011;11322;50.858;-1.778;2023-01-16T07:15:34;1.6;;;1.1;;
22308;SDS011;11322;50.858;-1.778;2023-01-16T07:20:34;0.65;;;0.65;;
22308;SDS011;11322;50.858;-1.778;2023-01-16T07:25:34;2.9;;;1.6;;
22308;SDS011;11322;50.858;-1.778;2023-01-16T07:30:34;1.9;;;1.4;;
22308;SDS011;11322;50.858;-1.778;2023-01-16T07:35:35;1.15;;;1.1;;
22308;SDS011;11322;50.858;-1.778;2023-01-16T07:40:45;4.55;;;3.0;;
22308;SDS011;11322;50.858;-1.778;2023-01-16T07:45:46;2.0;;;1.7;;
22308;SDS011;11322;50.858;-1.778;2023-01-16T07:50:34;0.55;;;0.5;;
22308;SDS011;11322;50.858;-1.778;2023-01-16T07:55:35;4.75;;;2.15;;
22308;SDS011;11322;50.858;-1.778;2023-01-16T08:00:42;0.9;;;0.8;;
22308;SDS011;11322;50.858;-1.778;2023-01-16T08:05:34;3.2;;;1.9;;
22308;SDS011;11322;50.858;-1.778;2023-01-16T08:10:43;3.5;;;1.6;;
22308;SDS011;11322;50.858;-1.778;2023-01-16T08:15:34;2.75;;;1.35;;
22308;SDS011;11322;50.858;-1.778;2023-01-16T08:20:34;1.05;;;1.05;;
22308;SDS011;11322;50.858;-1.778;2023-01-16T08:25:34;5.6;;;1.55;;
22308;SDS011;11322;50.858;-1.778;2023-01-16T08:30:34;0.1;;;0.1;;
22308;SDS011;11322;50.858;-1.778;2023-01-16T08:35:34;3.1;;;1.1;;
22308;SDS011;11322;50.858;-1.778;2023-01-16T08:40:34;0.45;;;0.45;;
22308;SDS011;11322;50.858;-1.778;2023-01-16T08:45:34;2.05;;;1.35;;
22308;SDS011;11322;50.858;-1.778;2023-01-16T08:50:34;1.85;;;1.25;;
22308;SDS011;11322;50.858;-1.778;2023-01-16T08:55:34;1.15;;;0.95;;
22308;SDS011;11322;50.858;-1.778;2023-01-16T09:00:34;1.65;;;0.75;;
22308;SDS011;11322;50.858;-1.778;2023-01-16T09:05:34;1.1;;;0.9;;
22308;SDS011;11322;50.858;-1.778;2023-01-16T09:10:34;1.4;;;0.7;;
22308;SDS011;11322;50.858;-1.778;2023-01-16T09:15:34;1.35;;;1.15;;
22308;SDS011;11322;50.858;-1.778;2023-01-16T09:20:34;0.7;;;0.7;;
22308;SDS011;11322;50.858;-1.778;2023-01-16T09:25:34;2.3;;;1.3;;
22308;SDS011;11322;50.858;-1.778;2023-01-16T09:30:34;1.5;;;0.6;;
22308;SDS011;11322;50.858;-1.778;2023-01-16T09:35:34;1.6;;;0.7;;
22308;SDS011;11322;50.858;-1.778;2023-01-16T09:40:34;0.1;;;0.1;;
22308;SDS011;11322;50.858;-1.778;2023-01-16T09:45:34;1.6;;;0.9;;
22308;SDS011;11322;50.858;-1.778;2023-01-16T09:50:35;0.35;;;0.3;;
22308;SDS011;11322;50.858;-1.778;2023-01-16T09:55:36;0.5;;;0.5;;
22308;SDS011;11322;50.858;-1.778;2023-01-16T10:00:34;0.3;;;0.3;;
22308;SDS011;11322;50.858;-1.778;2023-01-16T10:05:41;0.3;;;0.3;;
22308;SDS011;11322;50.858;-1.778;2023-01-16T10:05:47;0.3;;;0.3;;
22308;SDS011;11322;50.858;-1.778;2023-01-16T10:10:36;0.2;;;0.2;;
22308;SDS011;11322;50.858;-1.778;2023-01-16T10:15:35;3.05;;;0.45;;
22308;SDS011;11322;50.858;-1.778;2023-01-16T10:20:39;0.2;;;0.2;;
22308;SDS011;11322;50.858;-1.778;2023-01-16T10:25:36;0.3;;;0.3;;
22308;SDS011;11322;50.858;-1.778;2023-01-16T10:30:35;0.35;;;0.35;;
22308;SDS011;11322;50.858;-1.778;2023-01-16T10:35:35;0.2;;;0.2;;
22308;SDS011;11322;50.858;-1.778;2023-01-16T10:40:34;0.3;;;0.3;;
22308;SDS011;11322;50.858;-1.778;2023-01-16T10:45:34;0.8;;;0.3;;
22308;SDS011;11322;50.858;-1.778;2023-01-16T10:50:34;0.3;;;0.3;;
22308;SDS011;11322;50.858;-1.778;2023-01-16T10:55:34;0.1;;;0.1;;
22308;SDS011;11322;50.858;-1.778;2023-01-16T11:00:35;0.2;;;0.2;;
22308;SDS011;11322;50.858;-1.778;2023-01-16T11:05:35;0.3;;;0.3;;
22308;SDS011;11322;50.858;-1.778;2023-01-16T11:10:34;1.0;;;0.5;;
22308;SDS011;11322;50.858;-1.778;2023-01-16T11:15:34;0.8;;;0.35;;
22308;SDS011;11322;50.858;-1.778;2023-01-16T11:20:34;1.55;;;0.55;;
22308;SDS011;11322;50.858;-1.778;2023-01-16T11:25:34;0.1;;;0.1;;
22308;SDS011;11322;50.858;-1.778;2023-01-16T11:30:36;0.5;;;0.3;;
22308;SDS011;11322;50.858;-1.778;2023-01-16T11:35:34;0.45;;;0.4;;
22308;SDS011;11322;50.858;-1.778;2023-01-16T11:40:35;0.65;;;0.3;;
22308;SDS011;11322;50.858;-1.778;2023-01-16T11:45:34;0.35;;;0.3;;
22308;SDS011;11322;50.858;-1.778;2023-01-16T11:50:35;1.3;;;0.5;;
22308;SDS011;11322;50.858;-1.778;2023-01-16T11:55:36;2.6;;;0.7;;
22308;SDS011;11322;50.858;-1.778;2023-01-16T12:00:37;3.5;;;0.4;;
22308;SDS011;11322;50.858;-1.778;2023-01-16T12:05:37;0.3;;;0.3;;
22308;SDS011;11322;50.858;-1.778;2023-01-16T12:12:01;2.25;;;0.4;;
22308;SDS011;11322;50.858;-1.778;2023-01-16T12:15:35;0.2;;;0.2;;
22308;SDS011;11322;50.858;-1.778;2023-01-16T12:20:35;0.1;;;0.1;;
22308;SDS011;11322;50.858;-1.778;2023-01-16T12:25:36;0.3;;;0.2;;
22308;SDS011;11322;50.858;-1.778;2023-01-16T12:30:38;0.45;;;0.4;;
22308;SDS011;11322;50.858;-1.778;2023-01-16T12:35:37;0.3;;;0.3;;
22308;SDS011;11322;50.858;-1.778;2023-01-16T12:40:37;0.7;;;0.7;;
22308;SDS011;11322;50.858;-1.778;2023-01-16T12:45:37;2.0;;;1.1;;
22308;SDS011;11322;50.858;-1.778;2023-01-16T12:50:37;0.2;;;0.2;;
22308;SDS011;11322;50.858;-1.778;2023-01-16T12:55:37;0.3;;;0.3;;
22308;SDS011;11322;50.858;-1.778;2023-01-16T13:00:36;0.4;;;0.4;;
22308;SDS011;11322;50.858;-1.778;2023-01-16T13:05:34;1.5;;;0.4;;
22308;SDS011;11322;50.858;-1.778;2023-01-16T13:10:35;0.9;;;0.25;;
22308;SDS011;11322;50.858;-1.778;2023-01-16T13:15:35;0.25;;;0.25;;
22308;SDS011;11322;50.858;-1.778;2023-01-16T13:20:34;0.1;;;0.1;;
22308;SDS011;11322;50.858;-1.778;2023-01-16T13:25:35;0.95;;;0.5;;
22308;SDS011;11322;50.858;-1.778;2023-01-16T13:30:34;1.8;;;0.6;;
22308;SDS011;11322;50.858;-1.778;2023-01-16T13:35:35;0.4;;;0.4;;
22308;SDS011;11322;50.858;-1.778;2023-01-16T13:40:37;0.85;;;0.4;;
22308;SDS011;11322;50.858;-1.778;2023-01-16T13:45:34;0.1;;;0.1;;
22308;SDS011;11322;50.858;-1.778;2023-01-16T13:50:34;0.6;;;0.6;;
22308;SDS011;11322;50.858;-1.778;2023-01-16T13:55:35;0.1;;;0.1;;
22308;SDS011;11322;50.858;-1.778;2023-01-16T14:00:34;0.05;;;0.05;;
22308;SDS011;11322;50.858;-1.778;2023-01-16T14:05:42;0.4;;;0.3;;
22308;SDS011;11322;50.858;-1.778;2023-01-16T14:10:38;0.6;;;0.3;;
22308;SDS011;11322;50.858;-1.778;2023-01-16T14:15:43;0.65;;;0.35;;
22308;SDS011;11322;50.858;-1.778;2023-01-16T14:20:35;0.5;;;0.25;;
22308;SDS011;11322;50.858;-1.778;2023-01-16T14:25:34;0.7;;;0.3;;
22308;SDS011;11322;50.858;-1.778;2023-01-16T14:30:34;1.25;;;0.3;;
22308;SDS011;11322;50.858;-1.778;2023-01-16T14:35:40;0.55;;;0.55;;
22308;SDS011;11322;50.858;-1.778;2023-01-16T14:40:35;0.55;;;0.3;;
22308;SDS011;11322;50.858;-1.778;2023-01-16T14:45:34;3.15;;;0.3;;
22308;SDS011;11322;50.858;-1.778;2023-01-16T14:50:42;0.1;;;0.1;;
22308;SDS011;11322;50.858;-1.778;2023-01-16T14:55:42;0.65;;;0.4;;
22308;SDS011;11322;50.858;-1.778;2023-01-16T15:00:34;2.15;;;0.25;;
22308;SDS011;11322;50.858;-1.778;2023-01-16T15:05:34;1.7;;;0.35;;
22308;SDS011;11322;50.858;-1.778;2023-01-16T15:10:34;0.4;;;0.4;;
22308;SDS011;11322;50.858;-1.778;2023-01-16T15:15:34;0.2;;;0.2;;
22308;SDS011;11322;50.858;-1.778;2023-01-16T15:20:34;1.55;;;0.4;;
22308;SDS011;11322;50.858;-1.778;2023-01-16T15:25:38;0.1;;;0.1;;
22308;SDS011;11322;50.858;-1.778;2023-01-16T15:30:34;0.6;;;0.6;;
22308;SDS011;11322;50.858;-1.778;2023-01-16T15:35:34;1.75;;;0.8;;
22308;SDS011;11322;50.858;-1.778;2023-01-16T15:40:34;0.3;;;0.3;;
22308;SDS011;11322;50.858;-1.778;2023-01-16T15:45:34;1.2;;;0.6;;
22308;SDS011;11322;50.858;-1.778;2023-01-16T15:50:37;1.3;;;0.4;;
22308;SDS011;11322;50.858;-1.778;2023-01-16T15:55:36;12.8;;;3.45;;
22308;SDS011;11322;50.858;-1.778;2023-01-16T16:00:34;2.65;;;1.85;;
22308;SDS011;11322;50.858;-1.778;2023-01-16T16:05:34;3.05;;;2.2;;
22308;SDS011;11322;50.858;-1.778;2023-01-16T16:10:34;1.3;;;1.1;;
22308;SDS011;11322;50.858;-1.778;2023-01-16T16:15:34;4.75;;;2.8;;
22308;SDS011;11322;50.858;-1.778;2023-01-16T16:20:34;0.5;;;0.5;;
22308;SDS011;11322;50.858;-1.778;2023-01-16T16:25:35;0.7;;;0.6;;
22308;SDS011;11322;50.858;-1.778;2023-01-16T16:30:34;1.9;;;1.05;;
22308;SDS011;11322;50.858;-1.778;2023-01-16T16:35:34;0.8;;;0.6;;
22308;SDS011;11322;50.858;-1.778;2023-01-16T16:40:34;0.7;;;0.7;;
22308;SDS011;11322;50.858;-1.778;2023-01-16T16:45:34;0.6;;;0.5;;
22308;SDS011;11322;50.858;-1.778;2023-01-16T16:50:34;1.3;;;1.1;;
22308;SDS011;11322;50.858;-1.778;2023-01-16T16:55:34;0.7;;;0.3;;
22308;SDS011;11322;50.858;-1.778;2023-01-16T17:00:34;0.4;;;0.4;;
22308;SDS011;11322;50.858;-1.778;2023-01-16T17:05:34;0.2;;;0.2;;
22308;SDS011;11322;50.858;-1.778;2023-01-16T17:10:34;0.2;;;0.2;;
22308;SDS011;11322;50.858;-1.778;2023-01-16T17:15:34;0.2;;;0.2;;
22308;SDS011;11322;50.858;-1.778;2023-01-16T17:20:34;3.8;;;0.9;;
22308;SDS011;11322;50.858;-1.778;2023-01-16T17:25:34;0.5;;;0.5;;
22308;SDS011;11322;50.858;-1.778;2023-01-16T17:30:34;1.7;;;1.25;;
22308;SDS011;11322;50.858;-1.778;2023-01-16T17:35:34;2.0;;;1.35;;
22308;SDS011;11322;50.858;-1.778;2023-01-16T17:40:34;3.15;;;2.4;;
22308;SDS011;11322;50.858;-1.778;2023-01-16T17:45:34;1.85;;;1.75;;
22308;SDS011;11322;50.858;-1.778;2023-01-16T17:50:34;3.7;;;1.85;;
22308;SDS011;11322;50.858;-1.778;2023-01-16T17:55:34;5.7;;;1.1;;
22308;SDS011;11322;50.858;-1.778;2023-01-16T18:00:34;1.1;;;0.9;;
22308;SDS011;11322;50.858;-1.778;2023-01-16T18:05:34;1.85;;;1.75;;
22308;SDS011;11322;50.858;-1.778;2023-01-16T18:10:34;0.8;;;0.8;;
22308;SDS011;11322;50.858;-1.778;2023-01-16T18:15:34;5.65;;;2.95;;
22308;SDS011;11322;50.858;-1.778;2023-01-16T18:20:37;1.95;;;1.5;;
22308;SDS011;11322;50.858;-1.778;2023-01-16T18:25:34;2.0;;;1.5;;
22308;SDS011;11322;50.858;-1.778;2023-01-16T18:30:34;4.1;;;2.0;;
22308;SDS011;11322;50.858;-1.778;2023-01-16T18:35:34;4.25;;;2.3;;
22308;SDS011;11322;50.858;-1.778;2023-01-16T18:40:34;9.35;;;5.0;;
22308;SDS011;11322;50.858;-1.778;2023-01-16T18:45:34;4.25;;;3.2;;
22308;SDS011;11322;50.858;-1.778;2023-01-16T18:50:34;5.25;;;3.5;;
22308;SDS011;11322;50.858;-1.778;2023-01-16T18:55:34;8.4;;;6.35;;
22308;SDS011;11322;50.858;-1.778;2023-01-16T19:00:34;2.65;;;2.45;;
22308;SDS011;11322;50.858;-1.778;2023-01-16T19:05:34;2.05;;;1.75;;
22308;SDS011;11322;50.858;-1.778;2023-01-16T19:10:34;2.7;;;2.45;;
22308;SDS011;11322;50.858;-1.778;2023-01-16T19:15:34;6.15;;;4.6;;
22308;SDS011;11322;50.858;-1.778;2023-01-16T19:20:34;4.7;;;3.05;;
22308;SDS011;11322;50.858;-1.778;2023-01-16T19:25:34;2.55;;;1.9;;
22308;SDS011;11322;50.858;-1.778;2023-01-16T19:30:34;3.6;;;3.3;;
22308;SDS011;11322;50.858;-1.778;2023-01-16T19:35:34;9.55;;;6.8;;
22308;SDS011;11322;50.858;-1.778;2023-01-16T19:40:34;5.5;;;4.6;;
22308;SDS011;11322;50.858;-1.778;2023-01-16T19:45:35;3.7;;;3.35;;
22308;SDS011;11322;50.858;-1.778;2023-01-16T19:50:34;6.45;;;5.4;;
22308;SDS011;11322;50.858;-1.778;2023-01-16T19:55:34;11.0;;;5.4;;
22308;SDS011;11322;50.858;-1.778;2023-01-16T20:00:34;9.85;;;8.2;;
22308;SDS011;11322;50.858;-1.778;2023-01-16T20:05:34;5.4;;;4.05;;
22308;SDS011;11322;50.858;-1.778;2023-01-16T20:10:34;4.7;;;3.7;;
22308;SDS011;11322;50.858;-1.778;2023-01-16T20:15:34;8.8;;;3.65;;
22308;SDS011;11322;50.858;-1.778;2023-01-16T20:20:34;6.15;;;3.75;;
22308;SDS011;11322;50.858;-1.778;2023-01-16T20:25:36;10.2;;;4.35;;
22308;SDS011;11322;50.858;-1.778;2023-01-16T20:30:34;3.95;;;3.25;;
22308;SDS011;11322;50.858;-1.778;2023-01-16T20:35:34;4.1;;;3.85;;
22308;SDS011;11322;50.858;-1.778;2023-01-16T20:40:34;9.3;;;2.9;;
